LFLL/LYS METAR and TAF weather

Enter ICAO airport designator
Station Type Date Time Source
LFLL METAR 2022/08/13 12:00 UTC NOAA

LFLL 131200Z 35006KT 300V060 CAVOK 31/07 Q1012 NOSIG


Station Type Date Time Source
LFLL Decoded METAR 2022/08/13 12:00 UTC NOAA

Lyon / Satolas, France (LFLL) 45-44N 005-05E 240M
Aug 13, 2022 - 08:00 AM EDT / 2022.08.13 1200 UTC
Wind: from the N (350 degrees) at 7 MPH (6 KT) (direction variable):0
Visibility: greater than 7 mile(s):0
Temperature: 87 F (31 C)
Dew Point: 44 F (7 C)
Relative Humidity: 22%
Pressure (altimeter): 29.88 in. Hg (1012 hPa)
ob: LFLL 131200Z 35006KT 300V060 CAVOK 31/07 Q1012 NOSIG
cycle: 12

Station Type Date Time Source
LFLL TAF 2022/08/13 12:42 UTC NOAA

TAF LFLL 131100Z 1312/1418 36007KT CAVOK
BECMG 1320/1323 18012KT
TEMPO 1406/1418 21015G35KT 2500 TSRA BKN060CB PROB30
TEMPO 1406/1418 VRB20G45KT 1500 TSGR BKN014 BKN030CB

Example: see airport list